Strona główna
METAR-TAF:

METAR-TAF

Lotnisko :

Port lotniczy Helsinki-Vantaa

Helsinki, Finlandia

Szerokość geograficzna: 60-19N, Długość geograficzna: 024-58E, wysokość: 51 m

Aktualna obserwacja pogody

Raport powstał 36 minut temu, godzina 04:50 UTC
Wiatr 2 kt od południowy zachód
Temperatura -1°C
Wilgotność 100%
Ciśnienie 1019 hPa
Widzialność 10 km lub więcej
Płytka mgła

METAR: EFHK 200450Z 22002KT 9999 MIFG NSC M01/M01 Q1019 NOSIG

czas: 08:26 (05:26 UTC)

Prognoza

Raport powstał 2 godziny i 56 minut temu, godzina 02:30 UTC
Prognoza ważna od 20 godzina 03 UTC do 21 godzina 03 UTC
Wiatr 5 kt od zachód
Widzialność 10 km lub więcej
Brak chmur poniżej 1500 m i brak chmur cumulonimbus
Prawdopodobieństwo 40% :
Przejściowo
od 20 godzina 03 UTC do 20 godzina 07 UTC
Widzialność: 2500 m
zamglenie

TAF: EFHK 200230Z 2003/2103 26005KT CAVOK PROB40 TEMPO 2003/2007 2500 BR

Obserwacja i prognoza pogody dla ponad 4000 lotnisk (raport METAR i TAF).

Dostępne stacje oznaczono żółtymi i czerwonymi punktami na mapie.

Najedź kursorem aby zobaczyć nazwę stacji.

Kliknij aby zobaczyć obserwacje i prognozy pogody.

Aby zmienić mapę: kliknij na zielony przycisk z czarnym krzyżykiem, aby powiększyć; na zielony przycisk z myślnikiem, aby pomniejszyć; na zielone strzałki, aby przejść do map sąsiednich.


METAR-TAF: